This is the latest recevied weather packets stored in our database for station/object XW7RMR. If no packets are shown the sender has not sent any weather packets the latest 10 day(s).
| Time | Temp. | Humidity | Pressure | Rain* | Wind** | Luminosity | Snow |
|---|---|---|---|---|---|---|---|
| 1777654782 | 15.56° C | 72% | 1016 hPa | 0 mm | - | 478 W/m² | - |
| 1777654479 | 14.44° C | 73% | 1016.2 hPa | 0 mm | - | 466 W/m² | - |
| 1777654177 | 15° C | 75% | 1016 hPa | 0 mm | - | 476 W/m² | - |
| 1777653874 | 15.56° C | 73% | 1016.1 hPa | 0 mm | - | 463 W/m² | - |
| 1777653571 | 16.11° C | 72% | 1016.2 hPa | 0 mm | - | 461 W/m² | - |
| 1777653267 | 15° C | 75% | 1016.3 hPa | 0 mm | - | 373 W/m² | - |
| 1777652964 | 14.44° C | 77% | 1016.4 hPa | 0 mm | - | 348 W/m² | - |
| 1777652660 | 15° C | 76% | 1016.3 hPa | 0 mm | - | 365 W/m² | - |
| 1777652357 | 15° C | 76% | 1016.2 hPa | 0 mm | - | 375 W/m² | - |
| 1777652054 | 14.44° C | 76% | 1016.5 hPa | 0 mm | - | 336 W/m² | - |
| 1777651751 | 13.33° C | 82% | 1016.5 hPa | 0 mm | - | 290 W/m² | - |
| 1777651448 | 12.78° C | 83% | 1016.5 hPa | 0 mm | - | 219 W/m² | - |
| 1777651145 | 12.78° C | 83% | 1016.4 hPa | 0 mm | - | 195 W/m² | - |
| 1777650841 | 12.78° C | 83% | 1016.5 hPa | 0 mm | - | 178 W/m² | - |
| 1777650539 | 12.78° C | 83% | 1016.3 hPa | 0 mm | - | 169 W/m² | - |
| 1777650236 | 12.78° C | 83% | 1016.3 hPa | 0 mm | - | 175 W/m² | - |
| 1777649933 | 12.78° C | 84% | 1016.5 hPa | 0 mm | - | 213 W/m² | - |
| 1777649630 | 12.78° C | 84% | 1016.5 hPa | 0 mm | - | 225 W/m² | - |
| 1777649326 | 13.33° C | 82% | 1016.4 hPa | 0 mm | - | 206 W/m² | - |
| 1777649024 | 13.33° C | 81% | 1016.4 hPa | 0 mm | - | 193 W/m² | - |
| 1777648721 | 13.89° C | 80% | 1016.4 hPa | 0 mm | - | 220 W/m² | - |
| 1777648417 | 12.78° C | 84% | 1016.2 hPa | 0 mm | - | 212 W/m² | - |
| 1777648113 | 12.78° C | 84% | 1016.1 hPa | 0 mm | - | 154 W/m² | - |
| 1777647810 | 12.78° C | 83% | 1016.1 hPa | 0 mm | - | 174 W/m² | - |
| 1777647506 | 12.78° C | 84% | 1016.2 hPa | 0 mm | - | 160 W/m² | - |
* Rain latest hour (hover to see other rain measurements)
** Current wind speed in m/s (hover to see current wind gust speed)